sensor_id;sensor_type;location;lat;lon;timestamp;P1;durP1;ratioP1;P2;durP2;ratioP2
26050;SDS011;13825;53.496;10.020;2023-06-04T04:37:23;6.00;;;3.07;;
26050;SDS011;13825;53.496;10.020;2023-06-04T04:40:07;4.87;;;3.50;;
26050;SDS011;13825;53.496;10.020;2023-06-04T04:47:52;4.10;;;2.40;;
26050;SDS011;13825;53.496;10.020;2023-06-04T04:59:43;3.57;;;2.23;;
26050;SDS011;13825;53.496;10.020;2023-06-04T05:02:24;6.77;;;2.20;;
26050;SDS011;13825;53.496;10.020;2023-06-04T05:05:04;2.77;;;1.87;;
26050;SDS011;13825;53.496;10.020;2023-06-04T05:07:31;2.80;;;1.80;;
26050;SDS011;13825;53.496;10.020;2023-06-04T05:09:59;2.83;;;1.90;;
26050;SDS011;13825;53.496;10.020;2023-06-04T05:18:36;3.47;;;1.93;;
26050;SDS011;13825;53.496;10.020;2023-06-04T05:21:34;3.53;;;2.40;;
26050;SDS011;13825;53.496;10.020;2023-06-04T05:24:46;3.20;;;2.17;;
26050;SDS011;13825;53.496;10.020;2023-06-04T06:01:32;4.40;;;2.30;;
26050;SDS011;13825;53.496;10.020;2023-06-04T06:03:59;5.20;;;2.40;;
26050;SDS011;13825;53.496;10.020;2023-06-04T06:06:26;5.00;;;2.43;;
26050;SDS011;13825;53.496;10.020;2023-06-04T06:08:53;4.63;;;2.43;;
26050;SDS011;13825;53.496;10.020;2023-06-04T06:11:23;4.03;;;2.40;;
26050;SDS011;13825;53.496;10.020;2023-06-04T06:13:51;4.67;;;2.10;;
26050;SDS011;13825;53.496;10.020;2023-06-04T06:16:19;4.57;;;2.57;;
26050;SDS011;13825;53.496;10.020;2023-06-04T06:18:48;3.70;;;2.37;;
26050;SDS011;13825;53.496;10.020;2023-06-04T06:23:56;3.87;;;2.17;;
26050;SDS011;13825;53.496;10.020;2023-06-04T06:26:24;6.47;;;2.97;;
26050;SDS011;13825;53.496;10.020;2023-06-04T06:28:56;4.27;;;2.30;;
26050;SDS011;13825;53.496;10.020;2023-06-04T06:31:27;5.53;;;2.10;;
26050;SDS011;13825;53.496;10.020;2023-06-04T06:34:09;6.03;;;2.30;;
26050;SDS011;13825;53.496;10.020;2023-06-04T06:36:50;2.77;;;2.10;;
26050;SDS011;13825;53.496;10.020;2023-06-04T06:39:17;4.13;;;2.30;;
26050;SDS011;13825;53.496;10.020;2023-06-04T06:41:45;3.40;;;2.17;;
26050;SDS011;13825;53.496;10.020;2023-06-04T06:44:29;5.37;;;2.60;;
26050;SDS011;13825;53.496;10.020;2023-06-04T06:47:02;4.03;;;2.20;;
26050;SDS011;13825;53.496;10.020;2023-06-04T06:49:31;6.87;;;2.20;;
26050;SDS011;13825;53.496;10.020;2023-06-04T06:52:13;4.93;;;2.17;;
26050;SDS011;13825;53.496;10.020;2023-06-04T06:55:11;3.47;;;2.20;;
26050;SDS011;13825;53.496;10.020;2023-06-04T06:57:41;3.97;;;2.00;;
26050;SDS011;13825;53.496;10.020;2023-06-04T07:00:08;4.00;;;1.90;;
26050;SDS011;13825;53.496;10.020;2023-06-04T07:02:36;4.43;;;1.83;;
26050;SDS011;13825;53.496;10.020;2023-06-04T07:05:08;2.70;;;1.80;;
26050;SDS011;13825;53.496;10.020;2023-06-04T07:07:36;4.67;;;1.87;;
26050;SDS011;13825;53.496;10.020;2023-06-04T07:10:03;3.10;;;1.67;;
26050;SDS011;13825;53.496;10.020;2023-06-04T07:12:31;3.20;;;1.67;;
26050;SDS011;13825;53.496;10.020;2023-06-04T07:15:00;2.47;;;1.73;;
26050;SDS011;13825;53.496;10.020;2023-06-04T07:17:28;3.53;;;2.00;;
26050;SDS011;13825;53.496;10.020;2023-06-04T07:22:44;3.47;;;1.77;;
26050;SDS011;13825;53.496;10.020;2023-06-04T07:28:01;3.40;;;2.00;;
26050;SDS011;13825;53.496;10.020;2023-06-04T07:33:20;2.80;;;1.73;;
26050;SDS011;13825;53.496;10.020;2023-06-04T07:35:55;3.43;;;1.70;;
26050;SDS011;13825;53.496;10.020;2023-06-04T07:38:27;2.47;;;1.63;;
26050;SDS011;13825;53.496;10.020;2023-06-04T07:40:57;2.17;;;1.60;;
26050;SDS011;13825;53.496;10.020;2023-06-04T07:43:26;5.33;;;2.23;;
26050;SDS011;13825;53.496;10.020;2023-06-04T07:45:54;5.37;;;2.30;;
26050;SDS011;13825;53.496;10.020;2023-06-04T07:48:21;5.40;;;2.20;;
26050;SDS011;13825;53.496;10.020;2023-06-04T07:50:55;3.27;;;2.10;;
26050;SDS011;13825;53.496;10.020;2023-06-04T07:53:22;5.90;;;2.03;;
26050;SDS011;13825;53.496;10.020;2023-06-04T07:55:51;5.20;;;2.00;;
26050;SDS011;13825;53.496;10.020;2023-06-04T07:58:18;5.40;;;2.30;;
26050;SDS011;13825;53.496;10.020;2023-06-04T08:00:46;2.53;;;1.90;;
26050;SDS011;13825;53.496;10.020;2023-06-04T08:03:15;2.53;;;1.70;;
26050;SDS011;13825;53.496;10.020;2023-06-04T08:05:43;2.77;;;2.00;;
26050;SDS011;13825;53.496;10.020;2023-06-04T08:08:10;3.10;;;2.13;;
26050;SDS011;13825;53.496;10.020;2023-06-04T08:10:39;7.53;;;2.03;;
26050;SDS011;13825;53.496;10.020;2023-06-04T08:13:08;3.43;;;1.90;;
26050;SDS011;13825;53.496;10.020;2023-06-04T08:15:35;2.40;;;1.70;;
26050;SDS011;13825;53.496;10.020;2023-06-04T08:18:02;2.40;;;1.70;;
26050;SDS011;13825;53.496;10.020;2023-06-04T08:20:39;2.77;;;1.33;;
26050;SDS011;13825;53.496;10.020;2023-06-04T08:31:53;3.17;;;2.10;;
26050;SDS011;13825;53.496;10.020;2023-06-04T08:34:21;4.17;;;1.50;;
26050;SDS011;13825;53.496;10.020;2023-06-04T08:36:48;5.37;;;1.90;;
26050;SDS011;13825;53.496;10.020;2023-06-04T08:39:15;2.30;;;1.80;;
26050;SDS011;13825;53.496;10.020;2023-06-04T08:41:43;3.23;;;1.83;;
26050;SDS011;13825;53.496;10.020;2023-06-04T08:44:12;4.47;;;2.10;;
26050;SDS011;13825;53.496;10.020;2023-06-04T08:46:44;4.40;;;2.30;;
26050;SDS011;13825;53.496;10.020;2023-06-04T08:49:12;2.97;;;1.90;;
26050;SDS011;13825;53.496;10.020;2023-06-04T08:51:39;4.10;;;1.73;;
26050;SDS011;13825;53.496;10.020;2023-06-04T08:54:08;3.80;;;1.93;;
26050;SDS011;13825;53.496;10.020;2023-06-04T08:56:35;4.33;;;1.70;;
26050;SDS011;13825;53.496;10.020;2023-06-04T08:59:03;5.33;;;1.77;;
26050;SDS011;13825;53.496;10.020;2023-06-04T09:01:32;3.17;;;1.67;;
26050;SDS011;13825;53.496;10.020;2023-06-04T09:04:01;7.13;;;1.80;;
26050;SDS011;13825;53.496;10.020;2023-06-04T09:06:30;1.90;;;1.40;;
26050;SDS011;13825;53.496;10.020;2023-06-04T09:16:44;1.90;;;1.30;;
26050;SDS011;13825;53.496;10.020;2023-06-04T09:19:16;3.23;;;1.60;;
26050;SDS011;13825;53.496;10.020;2023-06-04T09:21:48;3.93;;;1.90;;
26050;SDS011;13825;53.496;10.020;2023-06-04T09:24:16;2.27;;;1.53;;
26050;SDS011;13825;53.496;10.020;2023-06-04T09:26:43;5.23;;;1.53;;
26050;SDS011;13825;53.496;10.020;2023-06-04T09:29:10;6.20;;;1.40;;
26050;SDS011;13825;53.496;10.020;2023-06-04T09:31:37;3.73;;;1.60;;
26050;SDS011;13825;53.496;10.020;2023-06-04T09:34:05;2.77;;;1.30;;
26050;SDS011;13825;53.496;10.020;2023-06-04T09:36:36;1.77;;;1.40;;
26050;SDS011;13825;53.496;10.020;2023-06-04T09:39:13;1.93;;;1.43;;
26050;SDS011;13825;53.496;10.020;2023-06-04T09:41:41;2.70;;;1.27;;
26050;SDS011;13825;53.496;10.020;2023-06-04T09:44:09;2.47;;;1.50;;
26050;SDS011;13825;53.496;10.020;2023-06-04T09:46:37;2.83;;;1.60;;
26050;SDS011;13825;53.496;10.020;2023-06-04T09:49:05;2.67;;;1.47;;
26050;SDS011;13825;53.496;10.020;2023-06-04T09:51:32;2.73;;;1.37;;
26050;SDS011;13825;53.496;10.020;2023-06-04T09:54:02;4.03;;;1.30;;
26050;SDS011;13825;53.496;10.020;2023-06-04T09:56:30;3.27;;;1.60;;
26050;SDS011;13825;53.496;10.020;2023-06-04T09:59:05;3.40;;;1.40;;
26050;SDS011;13825;53.496;10.020;2023-06-04T10:01:35;2.73;;;1.70;;
26050;SDS011;13825;53.496;10.020;2023-06-04T10:04:08;5.17;;;1.60;;
26050;SDS011;13825;53.496;10.020;2023-06-04T10:06:39;3.73;;;1.43;;
26050;SDS011;13825;53.496;10.020;2023-06-04T10:14:22;1.87;;;1.20;;
26050;SDS011;13825;53.496;10.020;2023-06-04T10:16:59;3.63;;;1.53;;
26050;SDS011;13825;53.496;10.020;2023-06-04T10:19:27;2.70;;;1.60;;
26050;SDS011;13825;53.496;10.020;2023-06-04T10:21:55;1.90;;;1.20;;
26050;SDS011;13825;53.496;10.020;2023-06-04T10:24:22;2.17;;;1.67;;
26050;SDS011;13825;53.496;10.020;2023-06-04T10:26:51;4.20;;;1.47;;
26050;SDS011;13825;53.496;10.020;2023-06-04T10:29:38;2.77;;;1.57;;
26050;SDS011;13825;53.496;10.020;2023-06-04T10:32:07;1.67;;;1.27;;
26050;SDS011;13825;53.496;10.020;2023-06-04T10:34:35;2.20;;;1.37;;
26050;SDS011;13825;53.496;10.020;2023-06-04T10:37:03;3.60;;;2.10;;
26050;SDS011;13825;53.496;10.020;2023-06-04T10:39:31;2.77;;;1.70;;
26050;SDS011;13825;53.496;10.020;2023-06-04T10:44:45;1.30;;;1.10;;
26050;SDS011;13825;53.496;10.020;2023-06-04T10:47:20;2.60;;;1.33;;
26050;SDS011;13825;53.496;10.020;2023-06-04T10:49:50;2.83;;;1.20;;
26050;SDS011;13825;53.496;10.020;2023-06-04T10:52:22;3.53;;;1.30;;
26050;SDS011;13825;53.496;10.020;2023-06-04T10:55:03;1.60;;;1.40;;
26050;SDS011;13825;53.496;10.020;2023-06-04T11:00:09;1.70;;;1.27;;
26050;SDS011;13825;53.496;10.020;2023-06-04T11:02:38;3.17;;;1.40;;
26050;SDS011;13825;53.496;10.020;2023-06-04T11:05:21;2.73;;;1.47;;
26050;SDS011;13825;53.496;10.020;2023-06-04T11:08:09;3.00;;;1.20;;
26050;SDS011;13825;53.496;10.020;2023-06-04T11:10:38;2.13;;;1.60;;
26050;SDS011;13825;53.496;10.020;2023-06-04T11:13:07;3.10;;;1.20;;
26050;SDS011;13825;53.496;10.020;2023-06-04T11:15:40;2.53;;;1.33;;
26050;SDS011;13825;53.496;10.020;2023-06-04T11:18:19;5.10;;;1.50;;
26050;SDS011;13825;53.496;10.020;2023-06-04T11:21:12;2.17;;;1.20;;
26050;SDS011;13825;53.496;10.020;2023-06-04T11:23:41;2.57;;;1.63;;
26050;SDS011;13825;53.496;10.020;2023-06-04T11:26:12;1.97;;;1.27;;
26050;SDS011;13825;53.496;10.020;2023-06-04T11:28:39;3.80;;;1.33;;
26050;SDS011;13825;53.496;10.020;2023-06-04T11:31:09;2.47;;;1.30;;
26050;SDS011;13825;53.496;10.020;2023-06-04T11:33:42;3.00;;;1.47;;
26050;SDS011;13825;53.496;10.020;2023-06-04T11:38:44;2.27;;;1.50;;
26050;SDS011;13825;53.496;10.020;2023-06-04T11:43:55;2.27;;;1.03;;
26050;SDS011;13825;53.496;10.020;2023-06-04T11:56:43;1.47;;;1.30;;
26050;SDS011;13825;53.496;10.020;2023-06-04T11:59:14;2.17;;;1.50;;
26050;SDS011;13825;53.496;10.020;2023-06-04T12:01:42;2.03;;;1.20;;
26050;SDS011;13825;53.496;10.020;2023-06-04T12:04:11;2.20;;;1.57;;
26050;SDS011;13825;53.496;10.020;2023-06-04T12:06:50;3.00;;;1.40;;
26050;SDS011;13825;53.496;10.020;2023-06-04T12:09:22;4.40;;;1.60;;
26050;SDS011;13825;53.496;10.020;2023-06-04T12:19:50;1.70;;;1.40;;
26050;SDS011;13825;53.496;10.020;2023-06-04T12:22:21;1.37;;;1.20;;
26050;SDS011;13825;53.496;10.020;2023-06-04T12:24:50;1.63;;;1.30;;
26050;SDS011;13825;53.496;10.020;2023-06-04T12:30:40;2.40;;;1.47;;
26050;SDS011;13825;53.496;10.020;2023-06-04T12:33:10;1.20;;;1.10;;
26050;SDS011;13825;53.496;10.020;2023-06-04T12:35:46;2.10;;;1.80;;
26050;SDS011;13825;53.496;10.020;2023-06-04T12:38:19;3.13;;;1.40;;
26050;SDS011;13825;53.496;10.020;2023-06-04T12:44:02;2.43;;;1.63;;
26050;SDS011;13825;53.496;10.020;2023-06-04T12:46:30;1.70;;;1.30;;
26050;SDS011;13825;53.496;10.020;2023-06-04T12:49:07;2.60;;;1.50;;
26050;SDS011;13825;53.496;10.020;2023-06-04T12:51:38;1.80;;;1.33;;
26050;SDS011;13825;53.496;10.020;2023-06-04T12:54:09;2.83;;;1.53;;
26050;SDS011;13825;53.496;10.020;2023-06-04T12:56:37;4.10;;;1.90;;
26050;SDS011;13825;53.496;10.020;2023-06-04T12:59:23;2.87;;;1.70;;
26050;SDS011;13825;53.496;10.020;2023-06-04T13:05:21;3.53;;;1.70;;
26050;SDS011;13825;53.496;10.020;2023-06-04T13:07:54;3.00;;;1.40;;
26050;SDS011;13825;53.496;10.020;2023-06-04T13:10:25;3.10;;;1.37;;
26050;SDS011;13825;53.496;10.020;2023-06-04T13:15:32;5.67;;;1.80;;
26050;SDS011;13825;53.496;10.020;2023-06-04T13:26:47;2.00;;;1.50;;
26050;SDS011;13825;53.496;10.020;2023-06-04T13:29:28;3.00;;;1.70;;
26050;SDS011;13825;53.496;10.020;2023-06-04T13:34:41;2.93;;;1.70;;
26050;SDS011;13825;53.496;10.020;2023-06-04T13:37:30;1.63;;;1.40;;
26050;SDS011;13825;53.496;10.020;2023-06-04T13:40:14;1.87;;;1.50;;
26050;SDS011;13825;53.496;10.020;2023-06-04T13:50:59;2.10;;;1.50;;
26050;SDS011;13825;53.496;10.020;2023-06-04T13:56:02;3.20;;;1.70;;
26050;SDS011;13825;53.496;10.020;2023-06-04T13:58:30;2.70;;;1.50;;
26050;SDS011;13825;53.496;10.020;2023-06-04T14:00:57;1.63;;;1.30;;
26050;SDS011;13825;53.496;10.020;2023-06-04T14:03:28;2.07;;;1.50;;
26050;SDS011;13825;53.496;10.020;2023-06-04T14:05:56;2.17;;;1.53;;
26050;SDS011;13825;53.496;10.020;2023-06-04T14:08:52;2.17;;;1.77;;
26050;SDS011;13825;53.496;10.020;2023-06-04T15:16:00;2.40;;;1.20;;
26050;SDS011;13825;53.496;10.020;2023-06-04T15:18:28;1.50;;;1.30;;
26050;SDS011;13825;53.496;10.020;2023-06-04T15:21:05;1.60;;;1.40;;
26050;SDS011;13825;53.496;10.020;2023-06-04T15:23:33;2.50;;;1.70;;
26050;SDS011;13825;53.496;10.020;2023-06-04T15:26:02;2.73;;;1.50;;
26050;SDS011;13825;53.496;10.020;2023-06-04T15:28:31;1.90;;;1.43;;
26050;SDS011;13825;53.496;10.020;2023-06-04T15:31:00;2.33;;;1.30;;
26050;SDS011;13825;53.496;10.020;2023-06-04T15:36:17;2.77;;;1.40;;
26050;SDS011;13825;53.496;10.020;2023-06-04T15:38:50;2.23;;;1.40;;
26050;SDS011;13825;53.496;10.020;2023-06-04T15:41:18;1.40;;;1.30;;
26050;SDS011;13825;53.496;10.020;2023-06-04T15:43:46;2.97;;;1.40;;
26050;SDS011;13825;53.496;10.020;2023-06-04T15:48:48;1.53;;;1.40;;
26050;SDS011;13825;53.496;10.020;2023-06-04T15:51:15;2.93;;;1.47;;
26050;SDS011;13825;53.496;10.020;2023-06-04T15:56:17;2.23;;;1.20;;
26050;SDS011;13825;53.496;10.020;2023-06-04T16:04:59;1.80;;;1.53;;
26050;SDS011;13825;53.496;10.020;2023-06-04T16:07:27;2.03;;;1.40;;
26050;SDS011;13825;53.496;10.020;2023-06-04T16:09:53;1.87;;;1.40;;
26050;SDS011;13825;53.496;10.020;2023-06-04T16:12:21;1.87;;;1.40;;
26050;SDS011;13825;53.496;10.020;2023-06-04T16:14:48;3.43;;;1.20;;
26050;SDS011;13825;53.496;10.020;2023-06-04T16:17:18;2.97;;;1.53;;
26050;SDS011;13825;53.496;10.020;2023-06-04T16:19:47;1.83;;;1.40;;
26050;SDS011;13825;53.496;10.020;2023-06-04T16:22:16;3.87;;;1.70;;
26050;SDS011;13825;53.496;10.020;2023-06-04T16:24:46;2.03;;;1.50;;
26050;SDS011;13825;53.496;10.020;2023-06-04T16:27:13;2.27;;;1.50;;
26050;SDS011;13825;53.496;10.020;2023-06-04T16:29:41;2.37;;;1.50;;
26050;SDS011;13825;53.496;10.020;2023-06-04T16:32:22;2.83;;;1.57;;
26050;SDS011;13825;53.496;10.020;2023-06-04T16:35:03;2.50;;;1.87;;
26050;SDS011;13825;53.496;10.020;2023-06-04T16:37:32;2.27;;;1.80;;
26050;SDS011;13825;53.496;10.020;2023-06-04T16:39:59;2.47;;;1.70;;
26050;SDS011;13825;53.496;10.020;2023-06-04T16:42:26;4.67;;;2.00;;
26050;SDS011;13825;53.496;10.020;2023-06-04T16:45:05;2.03;;;1.50;;
26050;SDS011;13825;53.496;10.020;2023-06-04T16:47:41;2.70;;;1.60;;
26050;SDS011;13825;53.496;10.020;2023-06-04T16:50:19;2.00;;;1.50;;
26050;SDS011;13825;53.496;10.020;2023-06-04T16:52:59;2.00;;;1.47;;
26050;SDS011;13825;53.496;10.020;2023-06-04T16:55:30;2.20;;;1.60;;
26050;SDS011;13825;53.496;10.020;2023-06-04T16:58:44;2.87;;;1.50;;
26050;SDS011;13825;53.496;10.020;2023-06-04T17:01:12;2.33;;;1.50;;
26050;SDS011;13825;53.496;10.020;2023-06-04T17:03:40;2.03;;;1.60;;
26050;SDS011;13825;53.496;10.020;2023-06-04T17:06:17;2.57;;;1.60;;
26050;SDS011;13825;53.496;10.020;2023-06-04T17:14:27;2.13;;;1.70;;
26050;SDS011;13825;53.496;10.020;2023-06-04T17:16:57;2.40;;;1.60;;
26050;SDS011;13825;53.496;10.020;2023-06-04T17:19:30;2.83;;;1.40;;
26050;SDS011;13825;53.496;10.020;2023-06-04T17:37:36;2.23;;;1.93;;
26050;SDS011;13825;53.496;10.020;2023-06-04T17:40:06;1.40;;;1.30;;
26050;SDS011;13825;53.496;10.020;2023-06-04T17:42:35;2.00;;;1.60;;
26050;SDS011;13825;53.496;10.020;2023-06-04T18:03:11;1.87;;;1.50;;
26050;SDS011;13825;53.496;10.020;2023-06-04T18:05:40;2.07;;;1.40;;
26050;SDS011;13825;53.496;10.020;2023-06-04T18:08:15;2.10;;;1.20;;
26050;SDS011;13825;53.496;10.020;2023-06-04T18:11:09;4.60;;;1.60;;
26050;SDS011;13825;53.496;10.020;2023-06-04T18:29:09;2.10;;;1.50;;
26050;SDS011;13825;53.496;10.020;2023-06-04T18:31:38;3.87;;;1.40;;
26050;SDS011;13825;53.496;10.020;2023-06-04T18:34:05;2.80;;;1.40;;
26050;SDS011;13825;53.496;10.020;2023-06-04T18:36:39;2.03;;;1.30;;
26050;SDS011;13825;53.496;10.020;2023-06-04T18:39:07;1.80;;;1.23;;
26050;SDS011;13825;53.496;10.020;2023-06-04T18:41:37;3.10;;;1.13;;
26050;SDS011;13825;53.496;10.020;2023-06-04T18:44:05;1.83;;;1.50;;
26050;SDS011;13825;53.496;10.020;2023-06-04T18:46:36;1.40;;;1.20;;
26050;SDS011;13825;53.496;10.020;2023-06-04T18:49:08;2.83;;;1.80;;
26050;SDS011;13825;53.496;10.020;2023-06-04T18:51:43;1.53;;;1.30;;
26050;SDS011;13825;53.496;10.020;2023-06-04T18:54:10;1.60;;;1.30;;
26050;SDS011;13825;53.496;10.020;2023-06-04T18:56:38;2.47;;;1.50;;
26050;SDS011;13825;53.496;10.020;2023-06-04T18:59:07;1.93;;;1.23;;
26050;SDS011;13825;53.496;10.020;2023-06-04T19:01:39;3.23;;;1.30;;
26050;SDS011;13825;53.496;10.020;2023-06-04T19:04:08;2.23;;;1.60;;
26050;SDS011;13825;53.496;10.020;2023-06-04T19:06:38;4.73;;;1.20;;
26050;SDS011;13825;53.496;10.020;2023-06-04T19:09:06;1.90;;;1.27;;
26050;SDS011;13825;53.496;10.020;2023-06-04T19:11:34;3.20;;;1.63;;
26050;SDS011;13825;53.496;10.020;2023-06-04T19:14:02;2.00;;;1.50;;
26050;SDS011;13825;53.496;10.020;2023-06-04T19:16:29;2.13;;;1.30;;
26050;SDS011;13825;53.496;10.020;2023-06-04T19:18:58;2.00;;;1.30;;
26050;SDS011;13825;53.496;10.020;2023-06-04T19:21:24;2.43;;;1.37;;
26050;SDS011;13825;53.496;10.020;2023-06-04T19:23:52;2.00;;;1.70;;
26050;SDS011;13825;53.496;10.020;2023-06-04T19:26:18;2.07;;;1.33;;
26050;SDS011;13825;53.496;10.020;2023-06-04T19:28:46;4.03;;;1.60;;
26050;SDS011;13825;53.496;10.020;2023-06-04T19:31:13;3.50;;;1.33;;
26050;SDS011;13825;53.496;10.020;2023-06-04T19:33:40;1.27;;;1.17;;
26050;SDS011;13825;53.496;10.020;2023-06-04T19:36:08;2.00;;;1.50;;
26050;SDS011;13825;53.496;10.020;2023-06-04T19:38:35;1.50;;;1.40;;
26050;SDS011;13825;53.496;10.020;2023-06-04T19:41:02;1.70;;;1.20;;
26050;SDS011;13825;53.496;10.020;2023-06-04T19:43:29;3.07;;;1.70;;
26050;SDS011;13825;53.496;10.020;2023-06-04T19:45:56;1.83;;;1.60;;
26050;SDS011;13825;53.496;10.020;2023-06-04T19:48:26;3.43;;;1.60;;
26050;SDS011;13825;53.496;10.020;2023-06-04T19:50:53;1.70;;;1.20;;
26050;SDS011;13825;53.496;10.020;2023-06-04T19:53:22;1.80;;;1.30;;
26050;SDS011;13825;53.496;10.020;2023-06-04T19:55:49;1.90;;;1.30;;
26050;SDS011;13825;53.496;10.020;2023-06-04T19:58:16;1.37;;;1.03;;
26050;SDS011;13825;53.496;10.020;2023-06-04T20:00:44;1.30;;;1.20;;
26050;SDS011;13825;53.496;10.020;2023-06-04T20:03:11;1.23;;;1.13;;
26050;SDS011;13825;53.496;10.020;2023-06-04T20:05:38;1.23;;;1.13;;
26050;SDS011;13825;53.496;10.020;2023-06-04T20:08:05;2.20;;;1.50;;
26050;SDS011;13825;53.496;10.020;2023-06-04T20:10:34;3.00;;;1.30;;
26050;SDS011;13825;53.496;10.020;2023-06-04T20:13:03;2.63;;;1.47;;
26050;SDS011;13825;53.496;10.020;2023-06-04T20:15:32;1.93;;;1.60;;
26050;SDS011;13825;53.496;10.020;2023-06-04T20:18:04;1.97;;;1.60;;
26050;SDS011;13825;53.496;10.020;2023-06-04T20:20:38;1.20;;;1.10;;
26050;SDS011;13825;53.496;10.020;2023-06-04T20:23:05;3.37;;;1.60;;
26050;SDS011;13825;53.496;10.020;2023-06-04T20:25:37;3.53;;;1.60;;
26050;SDS011;13825;53.496;10.020;2023-06-04T20:28:04;3.00;;;1.80;;
26050;SDS011;13825;53.496;10.020;2023-06-04T20:30:32;4.63;;;1.90;;
26050;SDS011;13825;53.496;10.020;2023-06-04T20:33:01;2.60;;;1.70;;
26050;SDS011;13825;53.496;10.020;2023-06-04T20:35:28;2.93;;;2.10;;
26050;SDS011;13825;53.496;10.020;2023-06-04T20:37:57;3.47;;;2.00;;
26050;SDS011;13825;53.496;10.020;2023-06-04T20:40:26;2.43;;;1.80;;
26050;SDS011;13825;53.496;10.020;2023-06-04T20:42:55;2.57;;;1.73;;
26050;SDS011;13825;53.496;10.020;2023-06-04T20:45:26;3.10;;;1.93;;
26050;SDS011;13825;53.496;10.020;2023-06-04T20:47:53;1.90;;;1.50;;
26050;SDS011;13825;53.496;10.020;2023-06-04T20:50:21;2.43;;;1.87;;
26050;SDS011;13825;53.496;10.020;2023-06-04T20:52:48;1.93;;;1.60;;
26050;SDS011;13825;53.496;10.020;2023-06-04T20:55:16;2.27;;;1.63;;
26050;SDS011;13825;53.496;10.020;2023-06-04T20:57:44;2.53;;;2.03;;
26050;SDS011;13825;53.496;10.020;2023-06-04T21:00:14;4.00;;;2.17;;
26050;SDS011;13825;53.496;10.020;2023-06-04T21:02:44;3.60;;;2.17;;
26050;SDS011;13825;53.496;10.020;2023-06-04T21:05:11;3.40;;;1.97;;
26050;SDS011;13825;53.496;10.020;2023-06-04T21:07:39;2.63;;;1.90;;
26050;SDS011;13825;53.496;10.020;2023-06-04T21:10:06;2.33;;;1.60;;
26050;SDS011;13825;53.496;10.020;2023-06-04T21:12:34;4.00;;;2.00;;
26050;SDS011;13825;53.496;10.020;2023-06-04T21:15:02;2.33;;;1.83;;
26050;SDS011;13825;53.496;10.020;2023-06-04T21:17:32;5.07;;;2.20;;
26050;SDS011;13825;53.496;10.020;2023-06-04T21:19:59;2.97;;;2.33;;
26050;SDS011;13825;53.496;10.020;2023-06-04T21:22:27;3.87;;;2.20;;
26050;SDS011;13825;53.496;10.020;2023-06-04T21:24:54;4.13;;;2.57;;
26050;SDS011;13825;53.496;10.020;2023-06-04T21:27:24;3.30;;;2.33;;
26050;SDS011;13825;53.496;10.020;2023-06-04T21:29:51;3.10;;;2.10;;
26050;SDS011;13825;53.496;10.020;2023-06-04T21:32:19;2.83;;;1.93;;
26050;SDS011;13825;53.496;10.020;2023-06-04T21:34:48;3.67;;;2.40;;
26050;SDS011;13825;53.496;10.020;2023-06-04T21:37:16;3.50;;;2.00;;
26050;SDS011;13825;53.496;10.020;2023-06-04T21:39:43;4.80;;;2.47;;
26050;SDS011;13825;53.496;10.020;2023-06-04T21:42:11;4.67;;;2.43;;
26050;SDS011;13825;53.496;10.020;2023-06-04T21:44:38;3.07;;;2.07;;
26050;SDS011;13825;53.496;10.020;2023-06-04T21:47:06;3.37;;;2.20;;
26050;SDS011;13825;53.496;10.020;2023-06-04T21:49:33;3.47;;;2.10;;
26050;SDS011;13825;53.496;10.020;2023-06-04T21:52:02;4.23;;;2.40;;
26050;SDS011;13825;53.496;10.020;2023-06-04T21:54:30;3.23;;;2.13;;
26050;SDS011;13825;53.496;10.020;2023-06-04T21:56:57;3.53;;;2.17;;
26050;SDS011;13825;53.496;10.020;2023-06-04T21:59:25;5.33;;;3.00;;
26050;SDS011;13825;53.496;10.020;2023-06-04T22:01:52;5.00;;;2.23;;
26050;SDS011;13825;53.496;10.020;2023-06-04T22:04:19;4.90;;;2.13;;
26050;SDS011;13825;53.496;10.020;2023-06-04T22:06:48;7.00;;;2.90;;
26050;SDS011;13825;53.496;10.020;2023-06-04T22:09:17;5.10;;;2.60;;
26050;SDS011;13825;53.496;10.020;2023-06-04T22:11:45;3.10;;;2.37;;
26050;SDS011;13825;53.496;10.020;2023-06-04T22:14:14;5.00;;;2.23;;
26050;SDS011;13825;53.496;10.020;2023-06-04T22:16:42;5.23;;;2.80;;
26050;SDS011;13825;53.496;10.020;2023-06-04T22:19:10;3.30;;;2.30;;
26050;SDS011;13825;53.496;10.020;2023-06-04T22:21:37;3.30;;;2.30;;
26050;SDS011;13825;53.496;10.020;2023-06-04T22:24:06;5.13;;;2.77;;
26050;SDS011;13825;53.496;10.020;2023-06-04T22:26:35;3.97;;;2.30;;
26050;SDS011;13825;53.496;10.020;2023-06-04T22:29:03;5.13;;;3.23;;
26050;SDS011;13825;53.496;10.020;2023-06-04T22:31:30;3.60;;;2.63;;
26050;SDS011;13825;53.496;10.020;2023-06-04T22:33:58;6.57;;;3.07;;
26050;SDS011;13825;53.496;10.020;2023-06-04T22:36:25;4.30;;;3.00;;
26050;SDS011;13825;53.496;10.020;2023-06-04T22:38:53;4.93;;;2.50;;
26050;SDS011;13825;53.496;10.020;2023-06-04T22:41:20;4.80;;;2.80;;
26050;SDS011;13825;53.496;10.020;2023-06-04T22:43:50;4.50;;;2.77;;
26050;SDS011;13825;53.496;10.020;2023-06-04T22:46:21;4.73;;;2.77;;
26050;SDS011;13825;53.496;10.020;2023-06-04T22:48:48;5.33;;;3.00;;
26050;SDS011;13825;53.496;10.020;2023-06-04T22:51:16;5.23;;;2.80;;
26050;SDS011;13825;53.496;10.020;2023-06-04T22:53:43;6.30;;;2.90;;
26050;SDS011;13825;53.496;10.020;2023-06-04T22:56:11;5.47;;;2.73;;
26050;SDS011;13825;53.496;10.020;2023-06-04T22:58:39;3.83;;;2.70;;
26050;SDS011;13825;53.496;10.020;2023-06-04T23:01:08;5.10;;;3.10;;
26050;SDS011;13825;53.496;10.020;2023-06-04T23:03:35;3.87;;;2.63;;
26050;SDS011;13825;53.496;10.020;2023-06-04T23:06:02;3.93;;;2.40;;
26050;SDS011;13825;53.496;10.020;2023-06-04T23:08:31;4.80;;;2.53;;
26050;SDS011;13825;53.496;10.020;2023-06-04T23:10:58;6.33;;;2.50;;
26050;SDS011;13825;53.496;10.020;2023-06-04T23:13:26;4.87;;;2.50;;
26050;SDS011;13825;53.496;10.020;2023-06-04T23:15:54;7.10;;;2.90;;
26050;SDS011;13825;53.496;10.020;2023-06-04T23:18:24;3.20;;;2.70;;
26050;SDS011;13825;53.496;10.020;2023-06-04T23:20:51;5.87;;;2.60;;
26050;SDS011;13825;53.496;10.020;2023-06-04T23:23:19;5.67;;;2.90;;
26050;SDS011;13825;53.496;10.020;2023-06-04T23:25:47;5.83;;;3.20;;
26050;SDS011;13825;53.496;10.020;2023-06-04T23:28:14;5.03;;;2.90;;
26050;SDS011;13825;53.496;10.020;2023-06-04T23:30:42;5.97;;;2.83;;
26050;SDS011;13825;53.496;10.020;2023-06-04T23:33:11;4.27;;;2.70;;
26050;SDS011;13825;53.496;10.020;2023-06-04T23:35:40;5.27;;;2.93;;
26050;SDS011;13825;53.496;10.020;2023-06-04T23:38:07;5.30;;;2.83;;
26050;SDS011;13825;53.496;10.020;2023-06-04T23:40:35;3.63;;;2.80;;
26050;SDS011;13825;53.496;10.020;2023-06-04T23:43:02;5.17;;;3.07;;
26050;SDS011;13825;53.496;10.020;2023-06-04T23:45:30;5.03;;;2.87;;
26050;SDS011;13825;53.496;10.020;2023-06-04T23:47:57;5.53;;;2.93;;
26050;SDS011;13825;53.496;10.020;2023-06-04T23:50:25;3.97;;;3.20;;
26050;SDS011;13825;53.496;10.020;2023-06-04T23:52:53;4.67;;;2.83;;
26050;SDS011;13825;53.496;10.020;2023-06-04T23:55:20;3.93;;;3.20;;
26050;SDS011;13825;53.496;10.020;2023-06-04T23:57:47;5.23;;;3.27;;
